Latest Weather Observations for Bedout Island

IDW60801

Issued at 10:14 pm WST Friday 23 April 2021 (issued every 10 minutes, with the page automatically refreshed every 10 minutes)

About weather observations | Map of weather stations | Latest weather observations for WA | Other Formats
Station Details ID: 004100 Name: BEDOUT ISLAND Lat: -19.59 Lon: 119.10 Height: 8.6 m
Data from the previous 72 hours. | See also: Recent months at Bedout Island
Date/Time
WST
Temp
°C
App
Temp
°C
Dew
Point
°C
Rel
Hum
%
Delta-T
°C
Wind Press
QNH
hPa
Press
MSL
hPa
Rain since
9am
mm
Dir  Spd
km/h
Gust
km/h
Spd
kts
Gust
kts
23/10:00pm 27.1 28.9 21.2 70 3.9 SW 13 15 7 8 1014.2 1014.2 -
23/09:30pm 26.7 28.9 21.9 75 3.2 SW 13 15 7 8 1014.2 1014.2 -
23/09:00pm 27.4 32.3 22.4 74 3.4 CALM 0 0 0 0 1014.3 1014.3 -
23/08:30pm 27.1 30.4 20.0 65 4.6 N 2 7 1 4 1014.3 1014.3 -
23/08:00pm 27.6 29.8 19.7 62 5.1 N 7 7 4 4 1013.9 1013.9 -
23/07:30pm 27.4 29.6 19.5 62 5.1 NNE 7 9 4 5 1013.7 1013.7 -
23/07:00pm 28.0 28.1 17.5 52 6.6 NE 13 15 7 8 1013.3 1013.3 -
23/06:30pm 27.9 29.2 19.4 60 5.5 NE 11 11 6 6 1013.1 1013.1 -
23/06:00pm 28.5 29.1 17.7 52 6.8 NE 11 15 6 8 1012.9 1012.9 -
23/05:30pm 28.9 28.2 16.5 47 7.7 NE 15 17 8 9 1012.5 1012.5 -
23/05:00pm 29.5 28.9 16.7 46 8.0 NE 15 17 8 9 1012.3 1012.3 -
23/04:30pm 29.8 29.3 17.9 48 7.6 NE 17 19 9 10 1012.2 1012.2 -
23/04:00pm 30.0 29.5 17.8 48 7.8 NE 17 20 9 11 1012.1 1012.1 -
23/03:30pm 29.9 28.7 17.0 45 8.1 ENE 19 20 10 11 1012.2 1012.2 -
23/03:00pm 30.3 29.2 17.7 46 8.0 ENE 20 24 11 13 1012.3 1012.3 -
23/02:30pm 30.1 27.4 16.5 44 8.5 E 26 32 14 17 1012.3 1012.3 -
23/02:00pm 30.3 27.0 17.0 44 8.4 E 30 33 16 18 1012.5 1012.5 -
23/01:30pm 30.0 25.1 15.3 41 9.0 E 35 39 19 21 1012.9 1012.9 -
23/01:00pm 30.0 25.2 15.7 42 8.8 E 35 41 19 22 1013.3 1013.3 -
23/12:30pm 29.4 24.4 16.2 44 8.2 E 37 43 20 23 1013.7 1013.7 -
23/12:00pm 29.5 24.9 17.0 47 7.9 E 37 43 20 23 1014.1 1014.1 -
23/11:30am 29.1 23.8 16.3 46 8.0 E 39 44 21 24 1014.6 1014.6 -
23/11:00am 29.4 23.4 15.5 43 8.5 E 41 50 22 27 1014.9 1014.9 -
23/10:30am 29.1 24.2 18.2 51 7.0 E 41 48 22 26 1015.1 1015.1 -
23/10:00am 28.8 22.4 15.3 43 8.3 E 43 48 23 26 1015.3 1015.3 -
23/09:30am 28.6 22.4 15.8 45 7.9 E 43 48 23 26 1015.2 1015.2 -
23/09:00am 28.5 22.7 17.4 51 7.0 E 44 50 24 27 1014.9 1014.9 -
23/08:30am 28.3 21.4 15.6 46 7.8 E 46 54 25 29 1014.6 1014.6 -
23/08:00am 28.1 21.5 16.4 49 7.3 ESE 46 54 25 29 1014.4 1014.4 -
23/07:30am 28.0 21.6 16.0 48 7.4 ESE 44 54 24 29 1014.1 1014.1 -
23/07:00am 27.8 21.5 16.1 49 7.2 ESE 44 52 24 28 1014.0 1014.0 -
23/06:30am 27.7 21.6 16.3 49 7.1 ESE 43 50 23 27 1013.7 1013.7 -
23/06:00am 27.4 21.5 15.7 48 7.2 ESE 41 48 22 26 1013.5 1013.5 -
23/05:30am 27.4 21.3 14.1 44 7.9 ESE 39 46 21 25 1013.0 1013.0 -
23/05:00am 27.3 21.6 14.3 45 7.8 ESE 37 44 20 24 1012.8 1012.8 -
23/04:30am 27.3 22.7 15.0 47 7.4 ESE 33 39 18 21 1012.7 1012.7 -
23/04:00am 27.3 21.9 14.0 44 7.9 ESE 35 41 19 22 1012.8 1012.8 -
23/03:30am 26.5 22.7 14.6 48 7.1 ESE 28 32 15 17 1013.0 1013.0 -
23/03:00am 26.6 21.5 10.7 37 8.9 SE 28 32 15 17 1013.1 1013.1 -
23/02:30am 26.4 24.1 16.6 55 6.1 SSE 24 28 13 15 1013.1 1013.1 -
23/02:00am 26.8 24.1 15.5 50 6.9 SSE 24 30 13 16 1013.2 1013.2 -
23/01:30am 27.0 24.2 14.4 46 7.5 SSE 22 28 12 15 1013.3 1013.3 -
23/01:00am 26.7 24.5 16.0 52 6.6 SSE 22 26 12 14 1013.5 1013.5 -
23/12:30am 26.5 25.4 18.6 62 5.0 SSE 22 24 12 13 1013.8 1013.8 -
23/12:00am 26.6 25.7 19.0 63 4.9 SSE 22 26 12 14 1014.1 1014.1 -
 
Date/Time
WST
Temp
°C
App
Temp
°C
Dew
Point
°C
Rel
Hum
%
Delta-T
°C
Wind Press
QNH
hPa
Press
MSL
hPa
Rain since
9am
mm
Dir  Spd
km/h
Gust
km/h
Spd
kts
Gust
kts
22/11:30pm 26.6 26.9 20.7 70 3.9 S 20 24 11 13 1014.2 1014.2 -
22/11:00pm 26.6 26.1 19.0 63 4.9 S 20 22 11 12 1014.4 1014.4 -
22/10:30pm 26.1 26.7 18.5 63 4.8 S 13 17 7 9 1014.6 1014.6 -
22/10:00pm 26.4 27.1 18.0 60 5.3 S 11 13 6 7 1014.8 1014.8 -
22/09:30pm 27.3 29.8 17.2 54 6.3 CALM 0 0 0 0 1014.8 1014.8 -
22/09:00pm 27.4 29.5 17.3 54 6.3 NW 2 7 1 4 1014.8 1014.8 -
22/08:30pm 27.3 30.1 18.0 56 5.9 CALM 0 2 0 1 1014.6 1014.6 -
22/08:00pm 27.2 27.3 16.5 52 6.6 NNE 11 13 6 7 1014.2 1014.2 -
22/07:30pm 27.7 27.2 16.9 51 6.7 NNE 15 19 8 10 1013.6 1013.6 -
22/07:00pm 27.9 27.0 16.8 50 6.9 NNE 17 19 9 10 1013.3 1013.3 -
22/06:30pm 28.1 26.9 17.0 51 6.9 NNE 19 20 10 11 1012.9 1012.9 -
22/06:00pm 28.2 26.5 15.8 47 7.6 NNE 19 22 10 12 1012.6 1012.6 -
22/05:30pm 28.6 27.1 15.2 44 8.2 NNE 17 20 9 11 1012.4 1012.4 -
22/05:00pm 29.3 28.5 16.1 44 8.2 NNE 15 17 8 9 1012.2 1012.2 -
22/04:30pm 30.0 29.0 15.7 42 8.8 NNE 15 19 8 10 1012.1 1012.1 -
22/04:00pm 30.3 28.1 14.8 39 9.5 NE 20 20 11 11 1012.0 1012.0 -
22/03:30pm 30.4 27.7 14.5 38 9.7 NE 22 26 12 14 1012.0 1012.0 -
22/03:00pm 30.8 27.1 12.7 33 10.7 NE 24 28 13 15 1012.2 1012.2 -
22/02:30pm 30.8 26.6 13.6 35 10.3 ENE 28 32 15 17 1012.4 1012.4 -
22/02:00pm 30.9 26.6 13.2 34 10.6 ENE 28 32 15 17 1012.7 1012.7 -
22/01:30pm 31.0 26.4 14.6 37 10.0 ENE 32 35 17 19 1013.1 1013.1 -
22/01:00pm 30.8 25.0 12.7 33 10.7 E 35 41 19 22 1013.4 1013.4 -
22/12:30pm 30.7 24.7 14.3 36 9.9 E 39 44 21 24 1013.8 1013.8 -
22/12:00pm 30.5 24.0 12.9 34 10.4 E 39 46 21 25 1014.2 1014.2 -
22/11:30am 30.6 24.7 15.8 40 9.2 E 41 46 22 25 1014.6 1014.6 -
22/11:00am 30.6 23.8 14.3 37 9.9 E 43 48 23 26 1014.9 1014.9 -
22/10:30am 30.2 23.4 14.7 39 9.4 E 44 50 24 27 1015.3 1015.3 -
22/10:00am 30.1 23.0 15.0 40 9.2 E 46 52 25 28 1015.4 1015.4 -
22/09:30am 29.9 23.4 16.7 45 8.3 E 46 56 25 30 1015.5 1015.5 -
22/09:00am 29.5 22.9 16.3 45 8.2 E 46 54 25 29 1015.4 1015.4 -
22/08:30am 29.2 21.7 15.0 42 8.7 E 48 57 26 31 1015.3 1015.3 -
22/08:00am 28.9 21.2 14.3 40 8.8 E 48 57 26 31 1015.1 1015.1 -
22/07:30am 28.5 21.4 16.1 47 7.7 E 48 57 26 31 1015.0 1015.0 -
22/07:00am 28.1 20.9 14.7 44 8.1 E 46 54 25 29 1014.7 1014.7 -
22/06:30am 27.9 21.2 15.2 46 7.7 E 44 50 24 27 1014.5 1014.5 -
22/06:00am 27.7 21.9 16.9 51 6.7 E 43 52 23 28 1014.4 1014.4 -
22/05:30am 27.8 21.4 15.5 47 7.5 E 43 50 23 27 1014.0 1014.0 -
22/05:00am 27.9 21.1 14.2 43 8.2 E 43 50 23 27 1013.8 1013.8 -
22/04:30am 28.0 22.2 15.0 45 7.9 E 39 48 21 26 1013.8 1013.8 -
22/04:00am 27.7 24.2 15.4 47 7.5 ESE 28 33 15 18 1013.7 1013.7 -
22/03:30am 26.0 25.5 19.9 69 4.0 SSE 22 26 12 14 1013.9 1013.9 -
22/03:00am 25.9 25.0 19.1 66 4.4 S 22 26 12 14 1013.9 1013.9 -
22/02:30am 26.3 25.9 20.2 69 4.0 S 22 24 12 13 1014.0 1014.0 -
22/02:00am 26.2 25.5 21.0 73 3.4 S 26 30 14 16 1014.2 1014.2 -
22/01:30am 26.0 25.8 21.2 75 3.2 S 24 26 13 14 1014.4 1014.4 -
22/01:00am 26.5 26.4 21.5 74 3.3 S 24 26 13 14 1014.5 1014.5 -
22/12:30am 26.5 26.5 21.0 72 3.6 SSE 22 26 12 14 1014.6 1014.6 -
22/12:00am 27.0 28.5 23.0 79 2.7 S 20 24 11 13 1014.6 1014.6 -
 
Date/Time
WST
Temp
°C
App
Temp
°C
Dew
Point
°C
Rel
Hum
%
Delta-T
°C
Wind Press
QNH
hPa
Press
MSL
hPa
Rain since
9am
mm
Dir  Spd
km/h
Gust
km/h
Spd
kts
Gust
kts
21/11:30pm 26.8 27.7 20.9 70 3.9 S 17 20 9 11 1014.7 1014.7 -
21/11:00pm 26.8 27.8 20.2 67 4.3 S 15 19 8 10 1014.9 1014.9 -
21/10:30pm 27.0 27.4 19.9 65 4.6 SSW 17 19 9 10 1015.0 1015.0 -
21/10:00pm 26.5 27.9 19.6 66 4.5 SW 11 13 6 7 1014.9 1014.9 -
21/09:30pm 27.0 28.9 18.6 60 5.4 WNW 6 9 3 5 1014.9 1014.9 -
21/09:00pm 26.6 27.8 18.2 60 5.3 W 9 11 5 6 1014.8 1014.8 -
21/08:30pm 26.7 27.7 18.6 61 5.2 W 11 13 6 7 1014.8 1014.8 -
21/08:00pm 27.2 27.9 17.9 56 5.9 N 11 13 6 7 1014.3 1014.3 -
21/07:30pm 27.2 27.9 17.9 56 5.9 N 11 13 6 7 1014.0 1014.0 -
21/07:00pm 27.3 27.4 17.5 55 6.2 N 13 15 7 8 1013.6 1013.6 -
21/06:30pm 27.6 27.6 18.0 55 6.1 N 15 17 8 9 1013.3 1013.3 -
21/06:00pm 28.3 27.0 15.9 47 7.6 N 17 19 9 10 1013.1 1013.1 -
21/05:30pm 28.8 28.3 17.7 51 7.0 NNE 17 20 9 11 1012.8 1012.8 -
21/05:00pm 29.5 28.2 17.3 47 7.7 NNE 20 22 11 12 1012.7 1012.7 -
21/04:30pm 30.1 28.7 16.5 44 8.5 NE 19 24 10 13 1012.6 1012.6 -
21/04:00pm 30.4 28.5 16.8 44 8.6 NE 22 26 12 14 1012.6 1012.6 -
21/03:30pm 30.5 28.7 16.9 44 8.6 ENE 22 28 12 15 1012.6 1012.6 -
21/03:00pm 31.1 29.1 17.4 44 8.7 ENE 24 30 13 16 1012.7 1012.7 -
21/02:30pm 31.0 28.1 17.0 43 8.9 ENE 28 33 15 18 1012.9 1012.9 -
21/02:00pm 30.9 27.4 16.5 42 9.0 ENE 30 35 16 19 1012.9 1012.9 -
21/01:30pm 30.9 27.5 17.6 45 8.5 ENE 32 37 17 20 1013.0 1013.0 -
21/01:00pm 31.0 27.9 18.4 47 8.1 ENE 32 35 17 19 1013.2 1013.2 -
21/12:30pm 30.4 27.0 18.2 48 7.8 ENE 33 37 18 20 1013.4 1013.4 -
21/12:00pm 30.4 26.9 17.8 46 8.0 ENE 33 39 18 21 1013.6 1013.6 -
21/11:30am 30.3 26.9 18.1 48 7.8 ENE 33 39 18 21 1014.0 1014.0 -
21/11:00am 30.0 26.0 17.5 47 7.9 ENE 35 39 19 21 1014.2 1014.2 -
21/10:30am 29.3 25.9 17.8 50 7.3 ENE 32 39 17 21 1014.5 1014.5 -
21/10:00am 28.9 25.9 17.7 50 7.1 E 30 37 16 20 1014.7 1014.7 -
21/09:30am 28.2 24.9 16.1 47 7.5 ESE 28 32 15 17 1015.0 1015.0 -
21/09:00am 28.0 24.9 16.6 50 7.1 ESE 28 33 15 18 1015.0 1015.0 -
21/08:30am 27.4 22.9 14.8 46 7.6 ESE 32 37 17 20 1014.9 1014.9 -
21/08:00am 27.6 22.7 15.3 47 7.5 SE 35 41 19 22 1014.8 1014.8 -
21/07:30am 27.5 21.9 13.4 41 8.3 SE 35 43 19 23 1014.6 1014.6 -
21/07:00am 27.1 22.4 14.8 47 7.4 SE 33 39 18 21 1014.2 1014.2 -
21/06:30am 25.8 22.7 17.4 59 5.2 SSE 30 35 16 19 1014.0 1014.0 -
21/06:00am 25.6 22.6 17.8 62 4.9 SE 30 35 16 19 1013.8 1013.8 -
21/05:30am 26.0 24.1 17.6 60 5.3 SE 24 28 13 15 1013.5 1013.5 -
21/05:00am 26.0 24.6 17.9 61 5.1 SE 22 26 12 14 1013.3 1013.3 -
21/04:30am 26.0 23.9 17.1 58 5.5 SE 24 28 13 15 1013.0 1013.0 -
21/04:00am 26.0 22.9 15.7 53 6.3 SE 26 30 14 16 1012.8 1012.8 -
21/03:30am 26.0 23.6 16.3 55 6.0 SSE 24 30 13 16 1012.6 1012.6 -
21/03:00am 26.5 23.8 15.5 50 6.7 SSE 24 30 13 16 1012.5 1012.5 -
21/02:30am 26.2 24.8 15.6 52 6.4 S 17 20 9 11 1012.4 1012.4 -
21/02:00am 26.1 24.7 15.5 52 6.4 S 17 19 9 10 1012.5 1012.5 -
21/01:30am 26.4 25.5 16.9 56 5.9 S 17 20 9 11 1012.7 1012.7 -
21/01:00am 26.4 27.4 20.3 69 4.0 S 15 19 8 10 1013.0 1013.0 -
21/12:30am 26.4 28.1 20.9 72 3.6 SW 13 15 7 8 1013.4 1013.4 -
21/12:00am 26.5 28.4 20.6 70 3.9 SSW 11 13 6 7 1013.6 1013.6 -
 
Date/Time
WST
Temp
°C
App
Temp
°C
Dew
Point
°C
Rel
Hum
%
Delta-T
°C
Wind Press
QNH
hPa
Press
MSL
hPa
Rain since
9am
mm
Dir  Spd
km/h
Gust
km/h
Spd
kts
Gust
kts
20/11:30pm 26.9 27.1 20.5 68 4.2 SSE 20 22 11 12 1013.8 1013.8 -
20/11:00pm 26.8 28.5 20.9 70 3.9 SW 13 15 7 8 1013.9 1013.9 -
20/10:30pm 27.2 28.8 20.8 68 4.2 SW 13 17 7 9 1014.2 1014.2 -

Other formats

Comma delimited format used in spreadsheet applications
http://www.bom.gov.au/fwo/IDW60801/IDW60801.94310.axf

JavaScript Object Notation format (JSON) in row-major order
http://www.bom.gov.au/fwo/IDW60801/IDW60801.94310.json

Data quality

Most of these data are generated automatically and are frequently updated. Quality checks on data are not normally performed. It is possible for incorrect values to appear. Refer to information at About Latest Weather Observations and please check the disclaimer before using these data.